Route Details

Aircraft Information
Group: North America Fleet
Types: B738, B752, B762, B763
Route Data
Distance: 1035nm
Duration: 2h 54m
Origin METAR: KELP 072351Z 03008KT 10SM FEW070 SCT095 12/M07 A3011 RMK AO2 SLP170 VIRGA W SHRA DSNT NW-N T01171072 10133 20094 53006
Dest. METAR: KRFD 072354Z 25005KT 10SM CLR 02/M03 A3015 RMK AO2 SLP216 T00221033 10050 20022 53020
Freight Data
(for Feb 8, 2023)
Load Factor:
37%
Manifested Cargo: 43,446lbs
Financial History
Total Freight: 0lbs
Average Load: 0lbs/flt
Fuel Used: 0lbs
Avg. Fuel Used: 0lbs/flt
Fuel Expense: $0
Avg. Fuel Expense: $0
Avg. Fuel Cost: $0/lbs
Total Gross Income: $0
Pilot Pay: $0
Total Expenses: $0
Total Revenue: $0
Average Revenue: $0

Capitol Logistics 457




KELP
El Paso International Airport
El Paso, Texas
KRFD
Chicago/Rockford International Airport
Rockford, Illinois

Activity Log

Date Flight Route Aircraft Duration
No Flights Yet